sensor_id;sensor_type;location;lat;lon;timestamp;P1;durP1;ratioP1;P2;durP2;ratioP2
37001;SDS011;22913;51.910;8.374;2023-03-01T00:00:11;10.83;;;5.37;;
37001;SDS011;22913;51.910;8.374;2023-03-01T00:02:57;12.57;;;5.83;;
37001;SDS011;22913;51.910;8.374;2023-03-01T00:05:43;7.47;;;6.10;;
37001;SDS011;22913;51.910;8.374;2023-03-01T00:08:30;10.27;;;7.43;;
37001;SDS011;22913;51.910;8.374;2023-03-01T00:11:19;10.90;;;7.00;;
37001;SDS011;22913;51.910;8.374;2023-03-01T00:14:05;8.97;;;6.73;;
37001;SDS011;22913;51.910;8.374;2023-03-01T00:16:53;10.77;;;6.80;;
37001;SDS011;22913;51.910;8.374;2023-03-01T00:19:38;12.47;;;6.03;;
37001;SDS011;22913;51.910;8.374;2023-03-01T00:22:26;11.47;;;6.33;;
37001;SDS011;22913;51.910;8.374;2023-03-01T00:25:11;7.47;;;6.17;;
37001;SDS011;22913;51.910;8.374;2023-03-01T00:27:57;8.93;;;6.83;;
37001;SDS011;22913;51.910;8.374;2023-03-01T00:30:43;11.00;;;6.67;;
37001;SDS011;22913;51.910;8.374;2023-03-01T00:33:30;7.83;;;6.40;;
37001;SDS011;22913;51.910;8.374;2023-03-01T00:36:15;9.27;;;6.70;;
37001;SDS011;22913;51.910;8.374;2023-03-01T00:39:01;10.83;;;6.63;;
37001;SDS011;22913;51.910;8.374;2023-03-01T00:41:49;6.70;;;5.63;;
37001;SDS011;22913;51.910;8.374;2023-03-01T00:44:35;6.93;;;6.07;;
37001;SDS011;22913;51.910;8.374;2023-03-01T00:47:21;6.90;;;5.70;;
37001;SDS011;22913;51.910;8.374;2023-03-01T00:50:08;7.90;;;5.77;;
37001;SDS011;22913;51.910;8.374;2023-03-01T00:52:55;8.07;;;5.90;;
37001;SDS011;22913;51.910;8.374;2023-03-01T00:55:41;6.13;;;5.53;;
37001;SDS011;22913;51.910;8.374;2023-03-01T00:58:27;8.87;;;6.17;;
37001;SDS011;22913;51.910;8.374;2023-03-01T01:01:14;7.07;;;5.63;;
37001;SDS011;22913;51.910;8.374;2023-03-01T01:04:02;8.17;;;5.40;;
37001;SDS011;22913;51.910;8.374;2023-03-01T01:06:51;8.27;;;5.93;;
37001;SDS011;22913;51.910;8.374;2023-03-01T01:09:37;9.30;;;6.37;;
37001;SDS011;22913;51.910;8.374;2023-03-01T01:12:23;8.10;;;6.07;;
37001;SDS011;22913;51.910;8.374;2023-03-01T01:15:09;10.43;;;5.90;;
37001;SDS011;22913;51.910;8.374;2023-03-01T01:17:57;7.97;;;5.93;;
37001;SDS011;22913;51.910;8.374;2023-03-01T01:20:43;8.37;;;5.87;;
37001;SDS011;22913;51.910;8.374;2023-03-01T01:23:31;11.23;;;6.23;;
37001;SDS011;22913;51.910;8.374;2023-03-01T01:26:17;7.23;;;6.23;;
37001;SDS011;22913;51.910;8.374;2023-03-01T01:29:05;8.60;;;6.10;;
37001;SDS011;22913;51.910;8.374;2023-03-01T01:31:51;7.20;;;5.67;;
37001;SDS011;22913;51.910;8.374;2023-03-01T01:34:37;6.73;;;5.10;;
37001;SDS011;22913;51.910;8.374;2023-03-01T01:37:24;8.43;;;5.63;;
37001;SDS011;22913;51.910;8.374;2023-03-01T01:40:16;7.23;;;5.27;;
37001;SDS011;22913;51.910;8.374;2023-03-01T01:43:01;7.50;;;5.20;;
37001;SDS011;22913;51.910;8.374;2023-03-01T01:45:48;7.80;;;5.90;;
37001;SDS011;22913;51.910;8.374;2023-03-01T01:48:37;7.07;;;5.67;;
37001;SDS011;22913;51.910;8.374;2023-03-01T01:51:27;8.63;;;5.63;;
37001;SDS011;22913;51.910;8.374;2023-03-01T01:54:22;8.00;;;6.30;;
37001;SDS011;22913;51.910;8.374;2023-03-01T01:57:14;7.73;;;6.27;;
37001;SDS011;22913;51.910;8.374;2023-03-01T02:00:05;6.60;;;5.50;;
37001;SDS011;22913;51.910;8.374;2023-03-01T02:02:56;6.83;;;5.90;;
37001;SDS011;22913;51.910;8.374;2023-03-01T02:05:45;8.00;;;5.90;;
37001;SDS011;22913;51.910;8.374;2023-03-01T02:08:35;8.70;;;5.67;;
37001;SDS011;22913;51.910;8.374;2023-03-01T02:11:23;7.10;;;5.67;;
37001;SDS011;22913;51.910;8.374;2023-03-01T02:14:11;9.57;;;5.53;;
37001;SDS011;22913;51.910;8.374;2023-03-01T02:16:56;8.13;;;5.67;;
37001;SDS011;22913;51.910;8.374;2023-03-01T02:19:44;7.20;;;5.87;;
37001;SDS011;22913;51.910;8.374;2023-03-01T02:22:37;11.13;;;5.70;;
37001;SDS011;22913;51.910;8.374;2023-03-01T02:25:29;8.17;;;6.00;;
37001;SDS011;22913;51.910;8.374;2023-03-01T02:28:22;6.10;;;5.00;;
37001;SDS011;22913;51.910;8.374;2023-03-01T02:31:10;7.33;;;5.80;;
37001;SDS011;22913;51.910;8.374;2023-03-01T02:34:19;7.97;;;5.97;;
37001;SDS011;22913;51.910;8.374;2023-03-01T02:37:09;7.57;;;5.80;;
37001;SDS011;22913;51.910;8.374;2023-03-01T02:39:59;6.67;;;5.43;;
37001;SDS011;22913;51.910;8.374;2023-03-01T02:42:51;7.80;;;5.80;;
37001;SDS011;22913;51.910;8.374;2023-03-01T02:45:47;7.07;;;5.63;;
37001;SDS011;22913;51.910;8.374;2023-03-01T02:48:41;7.70;;;5.47;;
37001;SDS011;22913;51.910;8.374;2023-03-01T02:51:37;7.80;;;5.90;;
37001;SDS011;22913;51.910;8.374;2023-03-01T02:54:31;8.03;;;5.43;;
37001;SDS011;22913;51.910;8.374;2023-03-01T02:57:23;6.63;;;5.67;;
37001;SDS011;22913;51.910;8.374;2023-03-01T03:00:13;9.83;;;5.60;;
37001;SDS011;22913;51.910;8.374;2023-03-01T03:03:05;7.07;;;5.83;;
37001;SDS011;22913;51.910;8.374;2023-03-01T03:05:52;7.53;;;5.83;;
37001;SDS011;22913;51.910;8.374;2023-03-01T03:08:37;7.23;;;5.93;;
37001;SDS011;22913;51.910;8.374;2023-03-01T03:11:24;6.77;;;6.07;;
37001;SDS011;22913;51.910;8.374;2023-03-01T03:14:10;6.73;;;5.13;;
37001;SDS011;22913;51.910;8.374;2023-03-01T03:16:58;6.73;;;6.03;;
37001;SDS011;22913;51.910;8.374;2023-03-01T03:19:45;11.83;;;5.83;;
37001;SDS011;22913;51.910;8.374;2023-03-01T03:22:31;5.80;;;5.27;;
37001;SDS011;22913;51.910;8.374;2023-03-01T03:25:17;6.00;;;5.40;;
37001;SDS011;22913;51.910;8.374;2023-03-01T03:28:04;6.53;;;5.80;;
37001;SDS011;22913;51.910;8.374;2023-03-01T03:30:53;7.50;;;5.70;;
37001;SDS011;22913;51.910;8.374;2023-03-01T03:33:39;6.50;;;5.10;;
37001;SDS011;22913;51.910;8.374;2023-03-01T03:36:27;9.07;;;5.67;;
37001;SDS011;22913;51.910;8.374;2023-03-01T03:39:13;8.07;;;6.10;;
37001;SDS011;22913;51.910;8.374;2023-03-01T03:41:58;6.87;;;5.53;;
37001;SDS011;22913;51.910;8.374;2023-03-01T03:44:44;7.53;;;5.87;;
37001;SDS011;22913;51.910;8.374;2023-03-01T03:47:30;8.07;;;5.57;;
37001;SDS011;22913;51.910;8.374;2023-03-01T03:50:17;6.23;;;5.63;;
37001;SDS011;22913;51.910;8.374;2023-03-01T03:53:06;5.97;;;5.37;;
37001;SDS011;22913;51.910;8.374;2023-03-01T03:55:53;6.97;;;5.83;;
37001;SDS011;22913;51.910;8.374;2023-03-01T03:58:38;7.47;;;5.53;;
37001;SDS011;22913;51.910;8.374;2023-03-01T04:01:25;11.03;;;5.87;;
37001;SDS011;22913;51.910;8.374;2023-03-01T04:04:10;7.43;;;5.67;;
37001;SDS011;22913;51.910;8.374;2023-03-01T04:06:56;13.97;;;6.47;;
37001;SDS011;22913;51.910;8.374;2023-03-01T04:09:44;9.93;;;6.33;;
37001;SDS011;22913;51.910;8.374;2023-03-01T04:12:30;7.47;;;6.63;;
37001;SDS011;22913;51.910;8.374;2023-03-01T04:15:17;7.73;;;5.80;;
37001;SDS011;22913;51.910;8.374;2023-03-01T04:18:03;8.30;;;6.07;;
37001;SDS011;22913;51.910;8.374;2023-03-01T04:20:50;7.47;;;5.70;;
37001;SDS011;22913;51.910;8.374;2023-03-01T04:23:39;7.50;;;6.20;;
37001;SDS011;22913;51.910;8.374;2023-03-01T04:26:27;9.57;;;5.80;;
37001;SDS011;22913;51.910;8.374;2023-03-01T04:29:12;8.40;;;5.57;;
37001;SDS011;22913;51.910;8.374;2023-03-01T04:31:58;8.47;;;6.00;;
37001;SDS011;22913;51.910;8.374;2023-03-01T04:34:44;9.60;;;5.77;;
37001;SDS011;22913;51.910;8.374;2023-03-01T04:37:30;7.83;;;5.60;;
37001;SDS011;22913;51.910;8.374;2023-03-01T04:40:16;6.40;;;5.57;;
37001;SDS011;22913;51.910;8.374;2023-03-01T04:43:03;7.17;;;5.73;;
37001;SDS011;22913;51.910;8.374;2023-03-01T04:45:49;6.73;;;5.57;;
37001;SDS011;22913;51.910;8.374;2023-03-01T04:48:35;9.37;;;6.40;;
37001;SDS011;22913;51.910;8.374;2023-03-01T04:51:21;8.77;;;5.93;;
37001;SDS011;22913;51.910;8.374;2023-03-01T04:54:07;6.50;;;5.77;;
37001;SDS011;22913;51.910;8.374;2023-03-01T04:56:53;8.67;;;6.30;;
37001;SDS011;22913;51.910;8.374;2023-03-01T04:59:40;8.20;;;6.00;;
37001;SDS011;22913;51.910;8.374;2023-03-01T05:02:26;7.93;;;6.50;;
37001;SDS011;22913;51.910;8.374;2023-03-01T05:05:12;8.67;;;6.80;;
37001;SDS011;22913;51.910;8.374;2023-03-01T05:07:58;9.47;;;6.40;;
37001;SDS011;22913;51.910;8.374;2023-03-01T05:10:46;10.27;;;6.30;;
37001;SDS011;22913;51.910;8.374;2023-03-01T05:13:34;11.20;;;6.83;;
37001;SDS011;22913;51.910;8.374;2023-03-01T05:16:21;9.50;;;7.17;;
37001;SDS011;22913;51.910;8.374;2023-03-01T05:19:07;8.60;;;6.27;;
37001;SDS011;22913;51.910;8.374;2023-03-01T05:21:58;8.77;;;6.37;;
37001;SDS011;22913;51.910;8.374;2023-03-01T05:24:47;11.33;;;7.10;;
37001;SDS011;22913;51.910;8.374;2023-03-01T05:27:33;9.90;;;7.30;;
37001;SDS011;22913;51.910;8.374;2023-03-01T05:30:19;11.27;;;6.70;;
37001;SDS011;22913;51.910;8.374;2023-03-01T05:33:06;7.97;;;6.30;;
37001;SDS011;22913;51.910;8.374;2023-03-01T05:35:59;9.27;;;7.43;;
37001;SDS011;22913;51.910;8.374;2023-03-01T05:38:45;9.23;;;7.20;;
37001;SDS011;22913;51.910;8.374;2023-03-01T05:41:31;9.67;;;6.70;;
37001;SDS011;22913;51.910;8.374;2023-03-01T05:44:16;10.30;;;7.70;;
37001;SDS011;22913;51.910;8.374;2023-03-01T05:47:02;11.30;;;7.60;;
37001;SDS011;22913;51.910;8.374;2023-03-01T05:49:49;15.27;;;7.97;;
37001;SDS011;22913;51.910;8.374;2023-03-01T05:52:35;9.10;;;7.60;;
37001;SDS011;22913;51.910;8.374;2023-03-01T05:55:20;10.80;;;7.37;;
37001;SDS011;22913;51.910;8.374;2023-03-01T05:58:07;15.70;;;7.47;;
37001;SDS011;22913;51.910;8.374;2023-03-01T06:00:55;14.00;;;8.23;;
37001;SDS011;22913;51.910;8.374;2023-03-01T06:03:40;11.03;;;7.50;;
37001;SDS011;22913;51.910;8.374;2023-03-01T06:06:28;10.37;;;7.70;;
37001;SDS011;22913;51.910;8.374;2023-03-01T06:09:14;10.77;;;7.77;;
37001;SDS011;22913;51.910;8.374;2023-03-01T06:12:00;9.50;;;7.13;;
37001;SDS011;22913;51.910;8.374;2023-03-01T06:14:46;9.90;;;7.80;;
37001;SDS011;22913;51.910;8.374;2023-03-01T06:17:33;13.87;;;7.77;;
37001;SDS011;22913;51.910;8.374;2023-03-01T06:20:21;12.63;;;7.47;;
37001;SDS011;22913;51.910;8.374;2023-03-01T06:23:09;10.77;;;7.20;;
37001;SDS011;22913;51.910;8.374;2023-03-01T06:25:55;9.73;;;8.17;;
37001;SDS011;22913;51.910;8.374;2023-03-01T06:28:41;8.70;;;6.67;;
37001;SDS011;22913;51.910;8.374;2023-03-01T06:31:29;9.57;;;7.50;;
37001;SDS011;22913;51.910;8.374;2023-03-01T06:34:15;10.60;;;7.60;;
37001;SDS011;22913;51.910;8.374;2023-03-01T06:37:01;8.50;;;6.87;;
37001;SDS011;22913;51.910;8.374;2023-03-01T06:39:50;12.20;;;8.07;;
37001;SDS011;22913;51.910;8.374;2023-03-01T06:42:36;10.20;;;6.83;;
37001;SDS011;22913;51.910;8.374;2023-03-01T06:45:23;9.77;;;7.50;;
37001;SDS011;22913;51.910;8.374;2023-03-01T06:48:09;9.20;;;7.37;;
37001;SDS011;22913;51.910;8.374;2023-03-01T06:50:57;10.33;;;7.23;;
37001;SDS011;22913;51.910;8.374;2023-03-01T06:53:43;9.10;;;7.10;;
37001;SDS011;22913;51.910;8.374;2023-03-01T06:56:31;11.27;;;7.53;;
37001;SDS011;22913;51.910;8.374;2023-03-01T06:59:18;12.37;;;8.23;;
37001;SDS011;22913;51.910;8.374;2023-03-01T07:02:04;10.83;;;7.30;;
37001;SDS011;22913;51.910;8.374;2023-03-01T07:04:49;12.80;;;7.67;;
37001;SDS011;22913;51.910;8.374;2023-03-01T07:07:36;10.53;;;8.03;;
37001;SDS011;22913;51.910;8.374;2023-03-01T07:10:22;10.73;;;7.53;;
37001;SDS011;22913;51.910;8.374;2023-03-01T07:13:09;8.53;;;7.50;;
37001;SDS011;22913;51.910;8.374;2023-03-01T07:15:55;9.20;;;7.60;;
37001;SDS011;22913;51.910;8.374;2023-03-01T07:18:41;9.10;;;7.33;;
37001;SDS011;22913;51.910;8.374;2023-03-01T07:21:27;11.20;;;7.63;;
37001;SDS011;22913;51.910;8.374;2023-03-01T07:24:13;12.77;;;8.50;;
37001;SDS011;22913;51.910;8.374;2023-03-01T07:26:59;9.33;;;7.47;;
37001;SDS011;22913;51.910;8.374;2023-03-01T07:29:46;9.90;;;7.50;;
37001;SDS011;22913;51.910;8.374;2023-03-01T07:32:32;10.83;;;7.70;;
37001;SDS011;22913;51.910;8.374;2023-03-01T07:35:18;12.77;;;7.53;;
37001;SDS011;22913;51.910;8.374;2023-03-01T07:38:04;11.07;;;8.13;;
37001;SDS011;22913;51.910;8.374;2023-03-01T07:40:50;11.73;;;7.63;;
37001;SDS011;22913;51.910;8.374;2023-03-01T07:43:35;13.83;;;8.63;;
37001;SDS011;22913;51.910;8.374;2023-03-01T07:46:23;8.67;;;7.70;;
37001;SDS011;22913;51.910;8.374;2023-03-01T07:49:08;9.80;;;7.53;;
37001;SDS011;22913;51.910;8.374;2023-03-01T07:51:54;10.47;;;7.60;;
37001;SDS011;22913;51.910;8.374;2023-03-01T07:54:42;11.17;;;8.40;;
37001;SDS011;22913;51.910;8.374;2023-03-01T07:57:29;14.47;;;8.07;;
37001;SDS011;22913;51.910;8.374;2023-03-01T08:00:15;10.57;;;8.30;;
37001;SDS011;22913;51.910;8.374;2023-03-01T08:03:03;10.60;;;7.73;;
37001;SDS011;22913;51.910;8.374;2023-03-01T08:05:48;10.73;;;8.53;;
37001;SDS011;22913;51.910;8.374;2023-03-01T08:08:35;8.43;;;7.20;;
37001;SDS011;22913;51.910;8.374;2023-03-01T08:11:21;18.37;;;8.60;;
37001;SDS011;22913;51.910;8.374;2023-03-01T08:14:07;9.57;;;7.77;;
37001;SDS011;22913;51.910;8.374;2023-03-01T08:16:54;11.20;;;7.63;;
37001;SDS011;22913;51.910;8.374;2023-03-01T08:19:42;12.37;;;8.13;;
37001;SDS011;22913;51.910;8.374;2023-03-01T08:22:28;13.63;;;7.93;;
37001;SDS011;22913;51.910;8.374;2023-03-01T08:25:14;10.33;;;7.57;;
37001;SDS011;22913;51.910;8.374;2023-03-01T08:28:00;11.27;;;7.27;;
37001;SDS011;22913;51.910;8.374;2023-03-01T08:30:46;11.27;;;7.70;;
37001;SDS011;22913;51.910;8.374;2023-03-01T08:33:32;11.90;;;7.70;;
37001;SDS011;22913;51.910;8.374;2023-03-01T08:36:19;10.20;;;7.43;;
37001;SDS011;22913;51.910;8.374;2023-03-01T08:39:05;9.13;;;6.57;;
37001;SDS011;22913;51.910;8.374;2023-03-01T08:41:51;10.10;;;7.87;;
37001;SDS011;22913;51.910;8.374;2023-03-01T08:44:36;8.73;;;6.93;;
37001;SDS011;22913;51.910;8.374;2023-03-01T08:47:22;9.63;;;7.77;;
37001;SDS011;22913;51.910;8.374;2023-03-01T08:50:08;10.83;;;7.40;;
37001;SDS011;22913;51.910;8.374;2023-03-01T08:52:56;8.90;;;6.80;;
37001;SDS011;22913;51.910;8.374;2023-03-01T08:55:41;7.93;;;6.63;;
37001;SDS011;22913;51.910;8.374;2023-03-01T08:58:27;7.43;;;6.10;;
37001;SDS011;22913;51.910;8.374;2023-03-01T09:01:14;6.67;;;5.97;;
37001;SDS011;22913;51.910;8.374;2023-03-01T09:04:02;12.57;;;6.60;;
37001;SDS011;22913;51.910;8.374;2023-03-01T09:06:47;13.57;;;6.60;;
37001;SDS011;22913;51.910;8.374;2023-03-01T09:09:34;9.80;;;6.87;;
37001;SDS011;22913;51.910;8.374;2023-03-01T09:12:20;7.27;;;6.23;;
37001;SDS011;22913;51.910;8.374;2023-03-01T09:15:06;7.87;;;6.43;;
37001;SDS011;22913;51.910;8.374;2023-03-01T09:17:53;10.77;;;7.87;;
37001;SDS011;22913;51.910;8.374;2023-03-01T09:20:39;10.90;;;7.53;;
37001;SDS011;22913;51.910;8.374;2023-03-01T09:23:25;7.67;;;6.87;;
37001;SDS011;22913;51.910;8.374;2023-03-01T09:26:12;7.53;;;5.77;;
37001;SDS011;22913;51.910;8.374;2023-03-01T09:29:00;8.03;;;6.10;;
37001;SDS011;22913;51.910;8.374;2023-03-01T09:31:46;8.53;;;6.80;;
37001;SDS011;22913;51.910;8.374;2023-03-01T09:34:32;8.37;;;6.17;;
37001;SDS011;22913;51.910;8.374;2023-03-01T09:37:37;8.40;;;7.07;;
37001;SDS011;22913;51.910;8.374;2023-03-01T09:40:26;7.87;;;5.83;;
37001;SDS011;22913;51.910;8.374;2023-03-01T09:43:18;7.27;;;5.90;;
37001;SDS011;22913;51.910;8.374;2023-03-01T09:46:09;12.93;;;7.43;;
37001;SDS011;22913;51.910;8.374;2023-03-01T09:48:58;7.97;;;6.73;;
37001;SDS011;22913;51.910;8.374;2023-03-01T09:51:56;7.93;;;6.37;;
37001;SDS011;22913;51.910;8.374;2023-03-01T09:54:46;8.67;;;6.37;;
37001;SDS011;22913;51.910;8.374;2023-03-01T09:57:33;7.73;;;6.10;;
37001;SDS011;22913;51.910;8.374;2023-03-01T10:00:30;6.20;;;5.47;;
37001;SDS011;22913;51.910;8.374;2023-03-01T10:03:24;6.87;;;5.60;;
37001;SDS011;22913;51.910;8.374;2023-03-01T10:06:14;8.03;;;5.10;;
37001;SDS011;22913;51.910;8.374;2023-03-01T10:09:05;6.17;;;5.20;;
37001;SDS011;22913;51.910;8.374;2023-03-01T10:11:55;5.73;;;4.73;;
37001;SDS011;22913;51.910;8.374;2023-03-01T10:14:43;7.27;;;5.37;;
37001;SDS011;22913;51.910;8.374;2023-03-01T10:17:38;10.53;;;5.60;;
37001;SDS011;22913;51.910;8.374;2023-03-01T10:20:30;8.80;;;6.23;;
37001;SDS011;22913;51.910;8.374;2023-03-01T10:23:25;6.37;;;5.50;;
37001;SDS011;22913;51.910;8.374;2023-03-01T10:26:18;7.43;;;5.23;;
37001;SDS011;22913;51.910;8.374;2023-03-01T10:29:23;7.73;;;6.30;;
37001;SDS011;22913;51.910;8.374;2023-03-01T10:32:13;7.47;;;5.53;;
37001;SDS011;22913;51.910;8.374;2023-03-01T10:35:01;12.77;;;10.27;;
37001;SDS011;22913;51.910;8.374;2023-03-01T10:37:56;12.43;;;9.97;;
37001;SDS011;22913;51.910;8.374;2023-03-01T10:40:50;8.50;;;5.77;;
37001;SDS011;22913;51.910;8.374;2023-03-01T10:43:42;5.73;;;5.13;;
37001;SDS011;22913;51.910;8.374;2023-03-01T10:46:30;8.17;;;6.00;;
37001;SDS011;22913;51.910;8.374;2023-03-01T10:49:17;5.57;;;5.07;;
37001;SDS011;22913;51.910;8.374;2023-03-01T10:52:16;6.27;;;5.67;;
37001;SDS011;22913;51.910;8.374;2023-03-01T10:55:19;6.43;;;5.83;;
37001;SDS011;22913;51.910;8.374;2023-03-01T10:58:16;5.87;;;5.27;;
37001;SDS011;22913;51.910;8.374;2023-03-01T11:01:04;8.27;;;7.40;;
37001;SDS011;22913;51.910;8.374;2023-03-01T11:04:03;9.07;;;8.00;;
37001;SDS011;22913;51.910;8.374;2023-03-01T11:06:58;13.00;;;11.03;;
37001;SDS011;22913;51.910;8.374;2023-03-01T11:09:45;6.20;;;5.60;;
37001;SDS011;22913;51.910;8.374;2023-03-01T11:12:31;7.80;;;5.40;;
37001;SDS011;22913;51.910;8.374;2023-03-01T11:15:21;6.00;;;5.17;;
37001;SDS011;22913;51.910;8.374;2023-03-01T11:18:18;5.57;;;4.90;;
37001;SDS011;22913;51.910;8.374;2023-03-01T11:21:05;6.20;;;5.60;;
37001;SDS011;22913;51.910;8.374;2023-03-01T11:23:53;6.53;;;5.50;;
37001;SDS011;22913;51.910;8.374;2023-03-01T11:26:41;6.80;;;5.87;;
37001;SDS011;22913;51.910;8.374;2023-03-01T11:29:30;7.13;;;6.43;;
37001;SDS011;22913;51.910;8.374;2023-03-01T11:32:19;6.80;;;6.17;;
37001;SDS011;22913;51.910;8.374;2023-03-01T11:35:10;7.30;;;6.10;;
37001;SDS011;22913;51.910;8.374;2023-03-01T11:38:09;6.27;;;5.10;;
37001;SDS011;22913;51.910;8.374;2023-03-01T11:41:04;8.67;;;5.37;;
37001;SDS011;22913;51.910;8.374;2023-03-01T11:43:55;5.67;;;5.00;;
37001;SDS011;22913;51.910;8.374;2023-03-01T11:46:53;8.33;;;7.00;;
37001;SDS011;22913;51.910;8.374;2023-03-01T11:50:02;5.70;;;5.10;;
37001;SDS011;22913;51.910;8.374;2023-03-01T11:53:20;7.30;;;4.50;;
37001;SDS011;22913;51.910;8.374;2023-03-01T11:56:21;5.43;;;4.50;;
37001;SDS011;22913;51.910;8.374;2023-03-01T12:02:49;5.90;;;4.83;;
37001;SDS011;22913;51.910;8.374;2023-03-01T12:09:24;6.00;;;5.13;;
37001;SDS011;22913;51.910;8.374;2023-03-01T12:15:35;5.03;;;4.57;;
37001;SDS011;22913;51.910;8.374;2023-03-01T12:18:58;5.73;;;4.00;;
37001;SDS011;22913;51.910;8.374;2023-03-01T12:22:05;4.63;;;4.23;;
37001;SDS011;22913;51.910;8.374;2023-03-01T12:28:25;4.73;;;4.33;;
37001;SDS011;22913;51.910;8.374;2023-03-01T12:31:50;6.10;;;4.33;;
37001;SDS011;22913;51.910;8.374;2023-03-01T12:35:01;5.43;;;4.20;;
37001;SDS011;22913;51.910;8.374;2023-03-01T12:38:00;34.17;;;5.60;;
37001;SDS011;22913;51.910;8.374;2023-03-01T12:44:23;7.03;;;5.90;;
37001;SDS011;22913;51.910;8.374;2023-03-01T12:47:23;4.63;;;4.20;;
37001;SDS011;22913;51.910;8.374;2023-03-01T12:50:21;6.37;;;5.57;;
37001;SDS011;22913;51.910;8.374;2023-03-01T12:53:13;5.30;;;4.80;;
37001;SDS011;22913;51.910;8.374;2023-03-01T12:56:07;5.03;;;4.60;;
37001;SDS011;22913;51.910;8.374;2023-03-01T12:58:57;4.93;;;4.53;;
37001;SDS011;22913;51.910;8.374;2023-03-01T13:01:51;5.23;;;4.63;;
37001;SDS011;22913;51.910;8.374;2023-03-01T13:04:50;5.47;;;4.33;;
37001;SDS011;22913;51.910;8.374;2023-03-01T13:07:49;4.97;;;4.50;;
37001;SDS011;22913;51.910;8.374;2023-03-01T13:10:40;5.47;;;4.67;;
37001;SDS011;22913;51.910;8.374;2023-03-01T13:13:32;5.50;;;4.90;;
37001;SDS011;22913;51.910;8.374;2023-03-01T13:19:28;5.00;;;4.00;;
37001;SDS011;22913;51.910;8.374;2023-03-01T13:22:26;4.80;;;4.30;;
37001;SDS011;22913;51.910;8.374;2023-03-01T13:25:16;4.93;;;4.53;;
37001;SDS011;22913;51.910;8.374;2023-03-01T13:34:49;4.47;;;4.07;;
37001;SDS011;22913;51.910;8.374;2023-03-01T13:37:37;6.57;;;5.00;;
37001;SDS011;22913;51.910;8.374;2023-03-01T13:43:43;7.50;;;6.80;;
37001;SDS011;22913;51.910;8.374;2023-03-01T13:46:31;4.67;;;4.10;;
37001;SDS011;22913;51.910;8.374;2023-03-01T13:49:18;4.43;;;4.03;;
37001;SDS011;22913;51.910;8.374;2023-03-01T13:52:06;6.10;;;4.60;;
37001;SDS011;22913;51.910;8.374;2023-03-01T13:55:23;4.80;;;4.07;;
37001;SDS011;22913;51.910;8.374;2023-03-01T13:58:15;4.50;;;4.10;;
37001;SDS011;22913;51.910;8.374;2023-03-01T14:01:06;4.13;;;3.70;;
37001;SDS011;22913;51.910;8.374;2023-03-01T14:03:52;4.97;;;3.50;;
37001;SDS011;22913;51.910;8.374;2023-03-01T14:06:39;6.60;;;3.60;;
37001;SDS011;22913;51.910;8.374;2023-03-01T14:09:25;8.00;;;5.57;;
37001;SDS011;22913;51.910;8.374;2023-03-01T14:12:18;4.80;;;4.40;;
37001;SDS011;22913;51.910;8.374;2023-03-01T14:15:14;5.07;;;4.13;;
37001;SDS011;22913;51.910;8.374;2023-03-01T14:18:04;5.03;;;4.63;;
37001;SDS011;22913;51.910;8.374;2023-03-01T14:20:56;6.67;;;6.07;;
37001;SDS011;22913;51.910;8.374;2023-03-01T14:23:42;3.83;;;3.53;;
37001;SDS011;22913;51.910;8.374;2023-03-01T14:26:28;7.13;;;6.37;;
37001;SDS011;22913;51.910;8.374;2023-03-01T14:29:25;4.20;;;3.90;;
37001;SDS011;22913;51.910;8.374;2023-03-01T14:32:15;4.20;;;3.50;;
37001;SDS011;22913;51.910;8.374;2023-03-01T14:35:18;5.17;;;3.80;;
37001;SDS011;22913;51.910;8.374;2023-03-01T14:38:06;3.90;;;3.20;;
37001;SDS011;22913;51.910;8.374;2023-03-01T14:41:05;3.90;;;3.47;;
37001;SDS011;22913;51.910;8.374;2023-03-01T14:43:55;3.57;;;3.27;;
37001;SDS011;22913;51.910;8.374;2023-03-01T14:46:44;4.90;;;4.40;;
37001;SDS011;22913;51.910;8.374;2023-03-01T14:49:30;4.03;;;3.67;;
37001;SDS011;22913;51.910;8.374;2023-03-01T14:52:18;4.07;;;3.77;;
37001;SDS011;22913;51.910;8.374;2023-03-01T14:55:07;3.63;;;3.30;;
37001;SDS011;22913;51.910;8.374;2023-03-01T14:58:02;4.20;;;3.90;;
37001;SDS011;22913;51.910;8.374;2023-03-01T15:00:50;4.93;;;4.00;;
37001;SDS011;22913;51.910;8.374;2023-03-01T15:03:40;4.40;;;4.10;;
37001;SDS011;22913;51.910;8.374;2023-03-01T15:06:28;7.77;;;4.33;;
37001;SDS011;22913;51.910;8.374;2023-03-01T15:09:14;4.23;;;3.90;;
37001;SDS011;22913;51.910;8.374;2023-03-01T15:12:14;5.83;;;5.23;;
37001;SDS011;22913;51.910;8.374;2023-03-01T15:15:31;4.33;;;3.93;;
37001;SDS011;22913;51.910;8.374;2023-03-01T15:18:20;5.33;;;4.83;;
37001;SDS011;22913;51.910;8.374;2023-03-01T15:21:13;5.03;;;4.63;;
37001;SDS011;22913;51.910;8.374;2023-03-01T15:24:02;4.40;;;4.00;;
37001;SDS011;22913;51.910;8.374;2023-03-01T15:27:03;4.03;;;3.73;;
37001;SDS011;22913;51.910;8.374;2023-03-01T15:29:51;4.70;;;4.03;;
37001;SDS011;22913;51.910;8.374;2023-03-01T15:32:38;4.67;;;4.10;;
37001;SDS011;22913;51.910;8.374;2023-03-01T15:35:33;4.97;;;4.17;;
37001;SDS011;22913;51.910;8.374;2023-03-01T15:38:28;5.00;;;4.57;;
37001;SDS011;22913;51.910;8.374;2023-03-01T15:41:21;7.70;;;7.03;;
37001;SDS011;22913;51.910;8.374;2023-03-01T15:44:15;7.43;;;6.83;;
37001;SDS011;22913;51.910;8.374;2023-03-01T15:47:03;7.40;;;6.83;;
37001;SDS011;22913;51.910;8.374;2023-03-01T15:50:11;5.67;;;5.20;;
37001;SDS011;22913;51.910;8.374;2023-03-01T15:53:03;4.07;;;3.67;;
37001;SDS011;22913;51.910;8.374;2023-03-01T15:55:56;4.30;;;3.90;;
37001;SDS011;22913;51.910;8.374;2023-03-01T15:58:41;3.93;;;3.63;;
37001;SDS011;22913;51.910;8.374;2023-03-01T16:01:27;4.70;;;4.23;;
37001;SDS011;22913;51.910;8.374;2023-03-01T16:04:15;4.63;;;4.23;;
37001;SDS011;22913;51.910;8.374;2023-03-01T16:07:06;3.70;;;3.40;;
37001;SDS011;22913;51.910;8.374;2023-03-01T16:09:53;4.40;;;4.00;;
37001;SDS011;22913;51.910;8.374;2023-03-01T16:12:40;4.27;;;3.97;;
37001;SDS011;22913;51.910;8.374;2023-03-01T16:15:27;5.00;;;4.53;;
37001;SDS011;22913;51.910;8.374;2023-03-01T16:18:13;4.30;;;3.90;;
37001;SDS011;22913;51.910;8.374;2023-03-01T16:20:59;4.67;;;4.07;;
37001;SDS011;22913;51.910;8.374;2023-03-01T16:23:45;4.37;;;3.97;;
37001;SDS011;22913;51.910;8.374;2023-03-01T16:26:30;5.13;;;4.73;;
37001;SDS011;22913;51.910;8.374;2023-03-01T16:29:18;4.93;;;4.17;;
37001;SDS011;22913;51.910;8.374;2023-03-01T16:32:03;4.23;;;3.93;;
37001;SDS011;22913;51.910;8.374;2023-03-01T16:34:49;4.70;;;4.00;;
37001;SDS011;22913;51.910;8.374;2023-03-01T16:37:35;4.63;;;4.23;;
37001;SDS011;22913;51.910;8.374;2023-03-01T16:40:22;4.43;;;4.03;;
37001;SDS011;22913;51.910;8.374;2023-03-01T16:43:10;6.33;;;5.77;;
37001;SDS011;22913;51.910;8.374;2023-03-01T16:45:57;11.30;;;10.23;;
37001;SDS011;22913;51.910;8.374;2023-03-01T16:48:43;9.40;;;8.50;;
37001;SDS011;22913;51.910;8.374;2023-03-01T16:51:29;9.77;;;8.20;;
37001;SDS011;22913;51.910;8.374;2023-03-01T16:54:18;7.63;;;6.13;;
37001;SDS011;22913;51.910;8.374;2023-03-01T16:57:03;5.10;;;4.57;;
37001;SDS011;22913;51.910;8.374;2023-03-01T16:59:50;5.47;;;4.30;;
37001;SDS011;22913;51.910;8.374;2023-03-01T17:02:38;4.77;;;4.30;;
37001;SDS011;22913;51.910;8.374;2023-03-01T17:05:24;5.03;;;4.20;;
37001;SDS011;22913;51.910;8.374;2023-03-01T17:08:10;5.90;;;4.13;;
37001;SDS011;22913;51.910;8.374;2023-03-01T17:11:01;5.90;;;4.10;;
37001;SDS011;22913;51.910;8.374;2023-03-01T17:13:48;4.90;;;4.37;;
37001;SDS011;22913;51.910;8.374;2023-03-01T17:16:33;5.13;;;4.57;;
37001;SDS011;22913;51.910;8.374;2023-03-01T17:19:20;4.73;;;4.07;;
37001;SDS011;22913;51.910;8.374;2023-03-01T17:22:06;4.57;;;4.10;;
37001;SDS011;22913;51.910;8.374;2023-03-01T17:24:52;5.33;;;4.30;;
37001;SDS011;22913;51.910;8.374;2023-03-01T17:27:38;6.30;;;3.70;;